createdAt,value
2022-12-08T00:01:11.424Z,5.42
2022-12-08T00:03:39.088Z,5.42
2022-12-08T00:06:26.531Z,5.42
2022-12-08T00:09:12.163Z,5.42
2022-12-08T00:11:39.668Z,5.41
2022-12-08T00:14:06.492Z,5.38
2022-12-08T00:16:33.290Z,5.39
2022-12-08T00:19:00.075Z,5.36
2022-12-08T00:21:26.912Z,5.37
2022-12-08T00:23:56.173Z,5.36
2022-12-08T00:26:23.630Z,5.33
2022-12-08T00:28:50.428Z,5.32
2022-12-08T00:31:17.646Z,5.31
2022-12-08T00:33:44.514Z,5.30
2022-12-08T00:36:13.892Z,5.29
2022-12-08T00:38:41.643Z,5.28
2022-12-08T00:41:40.317Z,5.24
2022-12-08T00:44:09.951Z,5.25
2022-12-08T00:46:37.104Z,5.19
2022-12-08T00:49:05.778Z,5.21
2022-12-08T00:51:33.215Z,5.19
2022-12-08T00:54:00.538Z,5.19
2022-12-08T00:56:27.832Z,5.18
2022-12-08T00:58:54.654Z,5.16
2022-12-08T01:01:21.615Z,5.14
2022-12-08T01:03:48.847Z,5.14
2022-12-08T01:06:16.088Z,5.11
2022-12-08T01:08:43.024Z,5.11
2022-12-08T01:11:13.432Z,5.11
2022-12-08T01:13:40.578Z,5.12
2022-12-08T01:16:07.649Z,5.09
2022-12-08T01:18:34.747Z,5.08
2022-12-08T01:21:06.254Z,5.06
2022-12-08T01:23:34.225Z,5.05
2022-12-08T01:26:05.549Z,5.06
2022-12-08T01:28:33.316Z,5.02
2022-12-08T01:31:01.681Z,5.03
2022-12-08T01:33:29.861Z,5.04
2022-12-08T01:35:56.646Z,5.01
2022-12-08T01:38:23.437Z,5.02
2022-12-08T01:40:50.222Z,5.01
2022-12-08T01:43:18.929Z,5.02
2022-12-08T01:45:46.438Z,5.01
2022-12-08T01:48:33.508Z,5.02
2022-12-08T01:51:01.291Z,5.01
2022-12-08T01:53:35.102Z,5.02
2022-12-08T01:56:15.963Z,5.01
2022-12-08T01:58:48.198Z,4.99
2022-12-08T02:01:15.269Z,4.98
2022-12-08T02:03:51.805Z,4.97
2022-12-08T02:06:20.049Z,4.99
2022-12-08T02:08:48.968Z,4.98
2022-12-08T02:11:16.124Z,4.97
2022-12-08T02:13:46.075Z,4.97
2022-12-08T02:16:25.004Z,4.94
2022-12-08T02:19:32.173Z,4.94
2022-12-08T02:22:04.255Z,4.97
2022-12-08T02:24:45.839Z,4.96
2022-12-08T02:27:50.222Z,4.99
2022-12-08T02:30:26.220Z,4.98
2022-12-08T02:32:56.274Z,4.96
2022-12-08T02:35:35.079Z,4.99
2022-12-08T02:38:04.903Z,5.00
2022-12-08T02:40:39.772Z,5.00
2022-12-08T02:43:39.638Z,5.03
2022-12-08T02:46:11.999Z,5.03
2022-12-08T02:48:39.373Z,5.07
2022-12-08T02:51:06.164Z,5.05
2022-12-08T02:53:35.251Z,5.04
2022-12-08T02:56:20.566Z,5.05
2022-12-08T02:59:05.899Z,5.05
2022-12-08T03:01:51.497Z,5.06
2022-12-08T03:04:45.278Z,5.07
2022-12-08T03:07:22.282Z,5.05
2022-12-08T03:09:56.363Z,5.06
2022-12-08T03:12:34.788Z,5.04
2022-12-08T03:15:08.811Z,5.06
2022-12-08T03:17:39.205Z,5.06
2022-12-08T03:20:12.236Z,5.03
2022-12-08T03:22:40.804Z,5.01
2022-12-08T03:25:10.435Z,5.03
2022-12-08T03:27:37.256Z,5.02
2022-12-08T03:30:05.058Z,5.01
2022-12-08T03:32:47.645Z,5.01
2022-12-08T03:35:31.031Z,5.01
2022-12-08T03:38:07.191Z,5.03
2022-12-08T03:40:34.360Z,5.03
2022-12-08T03:43:01.298Z,5.04
2022-12-08T03:45:28.231Z,5.05
2022-12-08T03:47:55.091Z,5.04
2022-12-08T03:50:22.027Z,5.03
2022-12-08T03:52:49.044Z,5.05
2022-12-08T03:55:16.149Z,5.04
2022-12-08T03:57:43.413Z,5.03
2022-12-08T04:00:15.055Z,5.04
2022-12-08T04:02:41.889Z,5.05
2022-12-08T04:05:09.000Z,5.05
2022-12-08T04:07:35.924Z,5.04
2022-12-08T04:10:03.153Z,5.03
2022-12-08T04:12:30.386Z,5.02
2022-12-08T04:14:57.166Z,5.01
2022-12-08T04:17:23.930Z,5.02
2022-12-08T04:19:50.701Z,5.02
2022-12-08T04:22:17.436Z,5.02
2022-12-08T04:24:44.253Z,5.01
2022-12-08T04:27:11.019Z,4.99
2022-12-08T04:29:37.792Z,5.00
2022-12-08T04:32:04.948Z,5.00
2022-12-08T04:34:31.699Z,4.97
2022-12-08T04:36:58.419Z,4.97
2022-12-08T04:39:25.325Z,4.99
2022-12-08T04:41:52.156Z,4.97
2022-12-08T04:44:18.962Z,4.96
2022-12-08T04:46:45.751Z,4.96
2022-12-08T04:49:12.575Z,4.91
2022-12-08T04:51:39.415Z,4.90
2022-12-08T04:54:06.318Z,4.89
2022-12-08T04:56:33.117Z,4.89
2022-12-08T04:58:59.931Z,4.87
2022-12-08T05:01:26.875Z,4.87
2022-12-08T05:03:53.787Z,4.88
2022-12-08T05:06:20.595Z,4.88
2022-12-08T05:08:47.339Z,4.90
2022-12-08T05:11:14.387Z,4.88
2022-12-08T05:13:41.250Z,4.85
2022-12-08T05:16:10.781Z,4.83
2022-12-08T05:18:39.336Z,4.82
2022-12-08T05:21:06.953Z,4.81
2022-12-08T05:23:34.467Z,4.83
2022-12-08T05:26:01.289Z,4.82
2022-12-08T05:28:44.226Z,4.81
2022-12-08T05:31:15.708Z,4.82
2022-12-08T05:33:43.737Z,4.81
2022-12-08T05:36:13.399Z,4.81
2022-12-08T05:38:40.863Z,4.83
2022-12-08T05:41:08.837Z,4.82
2022-12-08T05:43:35.686Z,4.81
2022-12-08T05:46:02.893Z,4.79
2022-12-08T05:48:29.700Z,4.81
2022-12-08T05:50:56.582Z,4.81
2022-12-08T05:53:23.402Z,4.81
2022-12-08T05:55:50.171Z,4.79
2022-12-08T05:58:20.770Z,4.80
2022-12-08T06:00:48.577Z,4.83
2022-12-08T06:03:17.901Z,4.82
2022-12-08T06:05:46.270Z,4.84
2022-12-08T06:08:14.016Z,4.84
2022-12-08T06:10:42.703Z,4.83
2022-12-08T06:13:09.810Z,4.84
2022-12-08T06:15:38.300Z,4.83
2022-12-08T06:18:06.316Z,4.84
2022-12-08T06:20:33.652Z,4.85
2022-12-08T06:23:00.629Z,4.87
2022-12-08T06:25:27.496Z,4.87
2022-12-08T06:27:54.270Z,4.87
2022-12-08T06:30:21.070Z,4.87
2022-12-08T06:32:47.867Z,4.86
2022-12-08T06:35:14.638Z,4.87
2022-12-08T06:37:41.436Z,4.88
2022-12-08T06:40:08.850Z,4.89
2022-12-08T06:42:44.715Z,4.89
2022-12-08T06:45:16.151Z,4.89
2022-12-08T06:47:43.907Z,4.88
2022-12-08T06:50:11.947Z,4.89
2022-12-08T06:52:47.271Z,4.89
2022-12-08T06:55:42.469Z,4.89
2022-12-08T06:58:06.796Z,4.93
2022-12-08T07:00:33.578Z,4.92
2022-12-08T07:03:00.403Z,4.92
2022-12-08T07:05:27.259Z,4.92
2022-12-08T07:07:54.159Z,4.92
2022-12-08T07:10:20.978Z,4.90
2022-12-08T07:12:47.753Z,4.89
2022-12-08T07:15:14.551Z,4.91
2022-12-08T07:17:41.405Z,4.92
2022-12-08T07:20:08.608Z,4.92
2022-12-08T07:22:35.430Z,4.92
2022-12-08T07:25:02.512Z,4.96
2022-12-08T07:27:29.316Z,4.96
2022-12-08T07:29:56.077Z,4.98
2022-12-08T07:32:23.130Z,4.99
2022-12-08T07:34:50.013Z,5.02
2022-12-08T07:37:16.807Z,5.04
2022-12-08T07:39:44.297Z,5.07
2022-12-08T07:42:11.200Z,5.09
2022-12-08T07:44:37.995Z,5.09
2022-12-08T07:47:05.022Z,5.09
2022-12-08T07:49:31.933Z,5.10
2022-12-08T07:51:58.744Z,5.12
2022-12-08T07:54:25.564Z,5.13
2022-12-08T07:56:52.320Z,5.11
2022-12-08T07:59:19.700Z,5.14
2022-12-08T08:02:00.813Z,5.13
2022-12-08T08:04:34.420Z,5.14
2022-12-08T08:07:01.270Z,5.15
2022-12-08T08:09:28.022Z,5.15
2022-12-08T08:12:22.257Z,5.16
2022-12-08T08:14:41.679Z,5.18
2022-12-08T08:17:08.659Z,5.19
2022-12-08T08:19:35.578Z,5.18
2022-12-08T08:22:02.406Z,5.20
2022-12-08T08:24:29.205Z,5.22
2022-12-08T08:26:55.957Z,5.21
2022-12-08T08:29:22.815Z,5.22
2022-12-08T08:31:49.927Z,5.24
2022-12-08T08:34:16.825Z,5.24
2022-12-08T08:36:43.714Z,5.25
2022-12-08T08:39:10.701Z,5.29
2022-12-08T08:41:37.541Z,5.28
2022-12-08T08:44:04.742Z,5.28
2022-12-08T08:46:32.110Z,5.29
2022-12-08T08:48:58.899Z,5.30
2022-12-08T08:51:25.748Z,5.29
2022-12-08T08:53:52.584Z,5.29
2022-12-08T08:56:20.041Z,5.30
2022-12-08T08:58:50.769Z,5.31
2022-12-08T09:01:21.092Z,5.32
2022-12-08T09:03:48.847Z,5.33
2022-12-08T09:06:15.683Z,5.36
2022-12-08T09:08:43.331Z,5.35
2022-12-08T09:11:10.797Z,5.35
2022-12-08T09:13:37.894Z,5.38
2022-12-08T09:16:07.613Z,5.39
2022-12-08T09:18:34.859Z,5.41
2022-12-08T09:21:07.309Z,5.41
2022-12-08T09:23:35.697Z,5.43
2022-12-08T09:26:03.761Z,5.43
2022-12-08T09:28:30.894Z,5.46
2022-12-08T09:30:57.815Z,5.46
2022-12-08T09:33:24.644Z,5.45
2022-12-08T09:35:51.418Z,5.45
2022-12-08T09:38:18.733Z,5.49
2022-12-08T09:40:55.173Z,5.47
2022-12-08T09:44:16.412Z,5.49
2022-12-08T09:46:44.107Z,5.50
2022-12-08T09:49:16.556Z,5.52
2022-12-08T09:51:44.704Z,5.53
2022-12-08T09:54:17.158Z,5.56
2022-12-08T09:56:44.286Z,5.58
2022-12-08T09:59:23.502Z,5.59
2022-12-08T10:01:51.184Z,5.61
2022-12-08T10:04:24.820Z,5.59
2022-12-08T10:07:07.460Z,5.60
2022-12-08T10:09:58.911Z,5.61
2022-12-08T10:12:41.444Z,5.61
2022-12-08T10:15:26.568Z,5.62
2022-12-08T10:17:54.942Z,5.64
2022-12-08T10:20:24.660Z,5.64
2022-12-08T10:23:01.702Z,5.64
2022-12-08T10:25:36.570Z,5.65
2022-12-08T10:28:03.378Z,5.66
2022-12-08T10:30:31.861Z,5.68
2022-12-08T10:32:58.809Z,5.69
2022-12-08T10:35:43.639Z,5.70
2022-12-08T10:38:18.794Z,5.70
2022-12-08T10:40:47.112Z,5.71
2022-12-08T10:43:21.817Z,5.71
2022-12-08T10:45:49.049Z,5.71
2022-12-08T10:48:26.985Z,5.74
2022-12-08T10:50:56.747Z,5.75
2022-12-08T10:53:26.618Z,5.77
2022-12-08T10:55:53.323Z,5.78
2022-12-08T10:58:24.647Z,5.78
2022-12-08T11:00:54.552Z,5.79
2022-12-08T11:03:30.773Z,5.79
2022-12-08T11:06:05.410Z,5.80
2022-12-08T11:08:47.195Z,5.80
2022-12-08T11:11:14.189Z,5.83
2022-12-08T11:13:42.217Z,5.83
2022-12-08T11:16:13.666Z,5.83
2022-12-08T11:18:47.099Z,5.83
2022-12-08T11:21:17.321Z,5.84
2022-12-08T11:23:48.722Z,5.89
2022-12-08T11:26:28.873Z,5.87
2022-12-08T11:28:56.979Z,5.91
2022-12-08T11:31:35.340Z,5.91
2022-12-08T11:34:03.492Z,5.93
2022-12-08T11:36:33.615Z,5.94
2022-12-08T11:39:04.531Z,5.95
2022-12-08T11:41:39.032Z,5.96
2022-12-08T11:44:22.173Z,5.98
2022-12-08T11:47:06.423Z,5.98
2022-12-08T11:49:39.579Z,5.97
2022-12-08T11:52:13.083Z,5.98
2022-12-08T11:55:05.365Z,6.02
2022-12-08T11:57:32.319Z,6.02
2022-12-08T12:00:01.601Z,6.02
2022-12-08T12:02:32.196Z,6.02
2022-12-08T12:05:11.057Z,6.01
2022-12-08T12:08:18.145Z,6.01
2022-12-08T12:11:12.695Z,5.99
2022-12-08T12:14:00.998Z,6.00
2022-12-08T12:16:33.630Z,6.00
2022-12-08T12:19:04.616Z,5.99
2022-12-08T12:21:34.604Z,5.97
2022-12-08T12:24:07.465Z,5.97
2022-12-08T12:26:37.937Z,5.97
2022-12-08T12:29:19.514Z,5.98
2022-12-08T12:31:53.509Z,5.97
2022-12-08T12:34:24.556Z,5.98
2022-12-08T12:37:08.021Z,5.97
2022-12-08T12:39:48.896Z,5.97
2022-12-08T12:42:56.918Z,5.96
2022-12-08T12:45:28.819Z,5.93
2022-12-08T12:47:56.833Z,5.96
2022-12-08T12:50:33.475Z,5.95
2022-12-08T12:53:03.169Z,5.94
2022-12-08T12:55:52.554Z,5.94
2022-12-08T12:58:23.283Z,5.94
2022-12-08T13:00:50.125Z,5.96
2022-12-08T13:03:17.857Z,5.95
2022-12-08T13:05:53.325Z,5.94
2022-12-08T13:08:24.491Z,5.92
2022-12-08T13:11:02.639Z,5.92
2022-12-08T13:13:29.938Z,5.92
2022-12-08T13:16:19.070Z,5.94
2022-12-08T13:18:52.539Z,5.96
2022-12-08T13:21:22.824Z,5.97
2022-12-08T13:23:51.281Z,5.96
2022-12-08T13:26:23.831Z,5.96
2022-12-08T13:28:59.545Z,5.95
2022-12-08T13:31:35.382Z,5.95
2022-12-08T13:34:06.597Z,5.96
2022-12-08T13:36:38.877Z,5.96
2022-12-08T13:39:07.508Z,5.97
2022-12-08T13:41:41.764Z,5.98
2022-12-08T13:53:49.584Z,6.01
2022-12-08T13:58:42.660Z,5.99
2022-12-08T14:01:22.416Z,5.98
2022-12-08T14:04:34.276Z,5.99
2022-12-08T14:07:01.013Z,5.97
2022-12-08T14:09:33.903Z,5.98
2022-12-08T14:12:25.189Z,5.97
2022-12-08T14:15:04.591Z,5.97
2022-12-08T14:17:32.368Z,5.97
2022-12-08T14:20:19.478Z,5.96
2022-12-08T14:22:46.949Z,5.96
2022-12-08T14:25:16.169Z,5.97
2022-12-08T14:27:43.488Z,5.96
2022-12-08T14:30:13.911Z,5.96
2022-12-08T14:32:50.991Z,5.98
2022-12-08T14:35:49.050Z,5.98
2022-12-08T14:38:18.038Z,5.99
2022-12-08T14:41:01.099Z,6.00
2022-12-08T14:43:29.969Z,6.00
2022-12-08T14:46:06.625Z,6.00
2022-12-08T14:48:38.999Z,5.98
2022-12-08T14:51:23.899Z,5.99
2022-12-08T14:54:01.404Z,6.00
2022-12-08T14:56:46.768Z,5.98
2022-12-08T14:59:26.450Z,6.00
2022-12-08T15:02:09.669Z,5.98
2022-12-08T15:04:42.524Z,5.99
2022-12-08T15:07:32.684Z,6.00
2022-12-08T15:10:17.854Z,5.98
2022-12-08T15:13:03.938Z,5.95
2022-12-08T15:15:32.769Z,5.96
2022-12-08T15:18:12.737Z,5.96
2022-12-08T15:20:40.353Z,5.97
2022-12-08T15:23:23.813Z,5.97
2022-12-08T15:25:51.126Z,5.96
2022-12-08T15:28:25.218Z,5.96
2022-12-08T15:30:56.088Z,5.96
2022-12-08T15:33:23.041Z,5.96
2022-12-08T15:35:51.208Z,5.95
2022-12-08T15:38:22.861Z,5.96
2022-12-08T15:40:50.204Z,5.96
2022-12-08T15:43:17.038Z,5.96
2022-12-08T15:45:56.284Z,5.96
2022-12-08T15:48:30.456Z,5.95
2022-12-08T15:50:57.583Z,5.96
2022-12-08T15:53:24.736Z,5.96
2022-12-08T15:58:55.757Z,5.95
2022-12-08T16:01:24.108Z,5.95
2022-12-08T16:09:29.416Z,5.97
2022-12-08T16:12:15.065Z,5.95
2022-12-08T16:17:31.946Z,5.97
2022-12-08T16:19:59.334Z,5.99
2022-12-08T16:25:20.278Z,5.97
2022-12-08T16:28:01.489Z,5.97
2022-12-08T16:30:30.651Z,5.97
2022-12-08T16:32:57.750Z,5.97
2022-12-08T16:35:24.603Z,5.98
2022-12-08T16:37:51.414Z,5.98
2022-12-08T16:40:18.800Z,5.98
2022-12-08T16:42:50.383Z,5.98
2022-12-08T16:45:27.540Z,5.98
2022-12-08T16:47:59.065Z,5.97
2022-12-08T16:50:27.763Z,5.96
2022-12-08T16:53:00.332Z,5.94
2022-12-08T16:55:27.894Z,5.96
2022-12-08T16:57:55.084Z,5.95
2022-12-08T17:00:25.025Z,5.95
2022-12-08T17:02:52.873Z,5.95
2022-12-08T17:05:21.984Z,5.95
2022-12-08T17:07:51.245Z,5.96
2022-12-08T17:10:25.232Z,5.95
2022-12-08T17:12:52.383Z,5.95
2022-12-08T17:15:22.764Z,5.95
2022-12-08T17:17:50.531Z,5.97
2022-12-08T17:20:23.623Z,5.98
2022-12-08T17:22:50.803Z,5.96
2022-12-08T17:25:17.683Z,5.95
2022-12-08T17:27:44.451Z,5.96
2022-12-08T17:30:15.719Z,5.95
2022-12-08T17:32:43.741Z,5.97
2022-12-08T17:35:11.984Z,5.95
2022-12-08T17:37:39.283Z,5.93
2022-12-08T17:40:07.436Z,5.92
2022-12-08T17:42:34.878Z,5.93
2022-12-08T17:45:01.861Z,5.94
2022-12-08T17:47:30.094Z,5.93
2022-12-08T17:49:57.362Z,5.94
2022-12-08T17:52:24.339Z,5.92
2022-12-08T17:54:51.547Z,5.93
2022-12-08T17:57:18.360Z,5.92
2022-12-08T17:59:45.309Z,5.91
2022-12-08T18:02:12.552Z,5.94
2022-12-08T18:04:41.301Z,5.92
2022-12-08T18:07:08.368Z,5.93
2022-12-08T18:09:35.409Z,5.92
2022-12-08T18:12:02.444Z,5.93
2022-12-08T18:14:29.623Z,5.95
2022-12-08T18:16:57.003Z,5.94
2022-12-08T18:19:24.112Z,5.94
2022-12-08T18:21:50.898Z,5.94
2022-12-08T18:24:22.156Z,5.95
2022-12-08T18:26:52.695Z,5.94
2022-12-08T18:29:21.305Z,5.96
2022-12-08T18:31:48.548Z,5.93
2022-12-08T18:34:15.695Z,5.94
2022-12-08T18:36:42.664Z,5.94
2022-12-08T18:39:20.214Z,5.95
2022-12-08T18:41:48.294Z,5.96
2022-12-08T18:44:15.549Z,5.95
2022-12-08T18:46:42.731Z,5.95
2022-12-08T18:49:14.444Z,5.95
2022-12-08T18:51:43.580Z,5.93
2022-12-08T18:54:12.380Z,5.93
2022-12-08T18:56:40.262Z,5.94
2022-12-08T18:59:12.264Z,5.95
2022-12-08T19:01:40.616Z,5.95
2022-12-08T19:06:57.120Z,5.95
2022-12-08T19:09:27.205Z,5.96
2022-12-08T19:11:55.346Z,5.94
2022-12-08T19:14:28.593Z,5.95
2022-12-08T19:16:57.719Z,5.96
2022-12-08T19:19:26.193Z,5.94
2022-12-08T19:21:54.087Z,5.95
2022-12-08T19:24:21.385Z,5.95
2022-12-08T19:26:49.211Z,5.94
2022-12-08T19:29:16.800Z,5.93
2022-12-08T19:31:45.197Z,5.94
2022-12-08T19:34:15.846Z,5.93
2022-12-08T19:36:45.577Z,5.94
2022-12-08T19:39:37.437Z,5.96
2022-12-08T19:42:32.665Z,5.95
2022-12-08T19:45:15.685Z,5.95
2022-12-08T19:47:43.540Z,5.97
2022-12-08T19:50:31.445Z,5.97
2022-12-08T19:52:59.230Z,5.96
2022-12-08T19:55:28.272Z,5.97
2022-12-08T19:57:57.628Z,5.96
2022-12-08T20:00:25.320Z,5.97
2022-12-08T20:02:54.957Z,5.98
2022-12-08T20:05:23.680Z,5.96
2022-12-08T20:07:51.341Z,5.96
2022-12-08T20:10:22.707Z,5.97
2022-12-08T20:12:51.058Z,5.96
2022-12-08T20:15:19.380Z,5.97
2022-12-08T20:17:50.327Z,5.98
2022-12-08T20:20:18.001Z,5.98
2022-12-08T20:22:46.346Z,5.90
2022-12-08T20:25:15.713Z,5.96
2022-12-08T20:27:43.785Z,5.98
2022-12-08T20:30:16.738Z,6.00
2022-12-08T20:32:46.232Z,5.98
2022-12-08T20:35:14.773Z,5.98
2022-12-08T20:37:41.982Z,5.97
2022-12-08T20:40:10.114Z,5.98
2022-12-08T20:42:37.862Z,5.96
2022-12-08T20:45:08.227Z,5.97
2022-12-08T20:47:37.755Z,5.95
2022-12-08T20:50:07.832Z,5.95
2022-12-08T20:52:38.071Z,5.93
2022-12-08T20:55:07.553Z,5.92
2022-12-08T20:57:35.517Z,5.93
2022-12-08T21:00:03.108Z,5.93
2022-12-08T21:02:30.777Z,5.93
2022-12-08T21:04:58.048Z,5.92
2022-12-08T21:07:24.996Z,5.94
2022-12-08T21:09:52.869Z,5.92
2022-12-08T21:12:20.155Z,5.91
2022-12-08T21:14:47.561Z,5.91
2022-12-08T21:17:14.613Z,5.87
2022-12-08T21:19:41.514Z,5.86
2022-12-08T21:22:08.509Z,5.84
2022-12-08T21:24:35.434Z,5.86
2022-12-08T21:27:02.296Z,5.85
2022-12-08T21:29:29.265Z,5.84
2022-12-08T21:32:00.334Z,5.82
2022-12-08T21:34:31.926Z,5.82
2022-12-08T21:36:58.872Z,5.80
2022-12-08T21:39:26.131Z,5.81
2022-12-08T21:42:12.103Z,5.79
2022-12-08T21:44:38.984Z,5.78
2022-12-08T21:47:06.550Z,5.79
2022-12-08T21:49:33.682Z,5.80
2022-12-08T21:52:00.582Z,5.77
2022-12-08T21:54:27.488Z,5.76
2022-12-08T21:56:54.415Z,5.77
2022-12-08T21:59:21.311Z,5.76
2022-12-08T22:01:48.530Z,5.74
2022-12-08T22:04:21.198Z,5.74
2022-12-08T22:06:49.036Z,5.75
2022-12-08T22:09:16.006Z,5.76
2022-12-08T22:11:44.087Z,5.73
2022-12-08T22:14:14.874Z,5.73
2022-12-08T22:16:43.086Z,5.71
2022-12-08T22:19:10.360Z,5.71
2022-12-08T22:21:38.447Z,5.69
2022-12-08T22:24:06.205Z,5.68
2022-12-08T22:26:33.230Z,5.68
2022-12-08T22:29:00.539Z,5.68
2022-12-08T22:31:28.462Z,5.67
2022-12-08T22:33:55.936Z,5.66
2022-12-08T22:36:25.495Z,5.66
2022-12-08T22:38:53.948Z,5.66
2022-12-08T22:41:22.215Z,5.64
2022-12-08T22:43:50.247Z,5.66
2022-12-08T22:46:26.016Z,5.62
2022-12-08T22:48:54.344Z,5.62
2022-12-08T22:51:21.927Z,5.64
2022-12-08T22:53:49.437Z,5.61
2022-12-08T22:56:17.730Z,5.62
2022-12-08T22:58:45.496Z,5.62
2022-12-08T23:01:24.853Z,5.62
2022-12-08T23:03:51.827Z,5.64
2022-12-08T23:06:19.164Z,5.60
2022-12-08T23:08:46.192Z,5.57
2022-12-08T23:11:13.304Z,5.56
2022-12-08T23:13:40.794Z,5.55
2022-12-08T23:16:09.313Z,5.53
2022-12-08T23:18:37.475Z,5.54
2022-12-08T23:21:09.773Z,5.51
2022-12-08T23:23:37.084Z,5.50
2022-12-08T23:26:05.236Z,5.45
2022-12-08T23:28:32.000Z,5.45
2022-12-08T23:30:58.698Z,5.43
2022-12-08T23:33:25.573Z,5.45
2022-12-08T23:35:58.666Z,5.44
2022-12-08T23:38:26.166Z,5.43
2022-12-08T23:40:53.660Z,5.43
2022-12-08T23:43:20.490Z,5.42
2022-12-08T23:45:48.429Z,5.42
2022-12-08T23:48:15.499Z,5.39
2022-12-08T23:50:42.457Z,5.40
2022-12-08T23:53:09.225Z,5.39
2022-12-08T23:55:35.943Z,5.40
2022-12-08T23:58:02.685Z,5.42
